createdAt,value
2023-01-03T00:00:04.179Z,5.76
2023-01-03T00:05:08.509Z,5.74
2023-01-03T00:10:11.075Z,5.70
2023-01-03T00:15:16.266Z,5.69
2023-01-03T00:20:18.161Z,5.67
2023-01-03T00:25:19.765Z,5.64
2023-01-03T00:30:21.960Z,5.61
2023-01-03T00:35:23.600Z,5.56
2023-01-03T00:40:25.342Z,5.54
2023-01-03T00:45:29.885Z,5.52
2023-01-03T00:50:37.663Z,5.37
2023-01-03T00:55:39.371Z,5.38
2023-01-03T01:00:41.155Z,5.42
2023-01-03T01:05:42.861Z,5.40
2023-01-03T01:11:01.798Z,5.39
2023-01-03T01:16:14.320Z,5.35
2023-01-03T01:21:18.695Z,5.32
2023-01-03T01:26:25.137Z,5.27
2023-01-03T01:31:27.254Z,5.26
2023-01-03T01:36:33.033Z,5.23
2023-01-03T01:41:55.596Z,5.15
2023-01-03T01:46:57.315Z,5.00
2023-01-03T01:51:58.984Z,5.04
2023-01-03T01:57:00.685Z,5.00
2023-01-03T02:02:02.658Z,4.90
2023-01-03T02:07:06.491Z,4.98
2023-01-03T02:12:45.620Z,4.91
2023-01-03T02:18:13.250Z,4.89
2023-01-03T02:23:21.389Z,4.41
2023-01-03T02:28:38.310Z,4.71
2023-01-03T02:33:57.642Z,4.82
2023-01-03T02:39:12.889Z,4.48
2023-01-03T02:44:33.674Z,4.49
2023-01-03T02:49:42.137Z,4.45
2023-01-03T02:54:55.805Z,4.43
2023-01-03T03:00:10.043Z,4.33
2023-01-03T03:05:17.984Z,4.31
2023-01-03T03:10:40.394Z,4.24
2023-01-03T03:16:03.043Z,4.06
2023-01-03T03:21:27.787Z,3.90
2023-01-03T03:26:40.072Z,3.92
2023-01-03T03:31:49.416Z,3.84
2023-01-03T03:37:05.006Z,3.82
2023-01-03T03:42:45.784Z,3.95
2023-01-03T03:48:03.582Z,4.06
2023-01-03T03:53:08.213Z,3.96
2023-01-03T03:58:32.586Z,4.15
2023-01-03T04:03:36.288Z,4.07
2023-01-03T04:08:38.618Z,4.15
2023-01-03T04:13:40.588Z,4.09
2023-01-03T04:18:42.204Z,3.97
2023-01-03T04:23:43.820Z,4.05
2023-01-03T04:28:45.491Z,4.05
2023-01-03T04:33:47.319Z,3.98
2023-01-03T04:38:48.998Z,4.02
2023-01-03T04:44:02.631Z,3.92
2023-01-03T04:49:06.629Z,3.79
2023-01-03T04:54:08.379Z,3.50
2023-01-03T04:59:10.067Z,3.43
2023-01-03T05:04:11.742Z,3.49
2023-01-03T05:09:13.438Z,3.47
2023-01-03T05:14:15.198Z,3.34
2023-01-03T05:19:16.972Z,3.37
2023-01-03T05:24:59.483Z,3.16
2023-01-03T05:30:01.442Z,2.95
2023-01-03T05:35:03.140Z,2.87
2023-01-03T05:40:05.326Z,2.96
2023-01-03T05:45:08.298Z,3.02
2023-01-03T05:50:10.067Z,3.05
2023-01-03T05:55:11.646Z,3.08
2023-01-03T06:00:16.727Z,3.20
2023-01-03T06:05:18.492Z,3.10
2023-01-03T06:10:20.179Z,3.13
2023-01-03T06:15:21.964Z,3.25
2023-01-03T06:20:25.373Z,3.16
2023-01-03T06:25:27.287Z,3.35
2023-01-03T06:30:29.041Z,3.25
2023-01-03T06:35:30.791Z,3.43
2023-01-03T06:40:39.308Z,3.52
2023-01-03T06:46:03.483Z,3.65
2023-01-03T06:51:26.408Z,3.63
2023-01-03T06:56:28.853Z,3.68
2023-01-03T07:01:30.617Z,3.75
2023-01-03T07:06:32.379Z,3.81
2023-01-03T07:11:34.215Z,3.92
2023-01-03T07:16:43.930Z,3.96
2023-01-03T07:21:46.960Z,4.05
2023-01-03T07:26:48.607Z,4.13
2023-01-03T07:31:50.338Z,4.05
2023-01-03T07:36:52.120Z,4.10
2023-01-03T07:42:12.156Z,4.13
2023-01-03T07:47:14.447Z,4.11
2023-01-03T07:52:16.165Z,4.27
2023-01-03T07:57:20.633Z,4.32
2023-01-03T08:02:22.553Z,4.24
2023-01-03T08:07:24.371Z,4.27
2023-01-03T08:12:44.750Z,4.30
2023-01-03T08:17:46.604Z,4.35
2023-01-03T08:22:48.390Z,4.44
2023-01-03T08:27:50.608Z,4.33
2023-01-03T08:32:55.112Z,4.33
2023-01-03T08:37:59.768Z,4.30
2023-01-03T08:43:04.440Z,4.40
2023-01-03T08:48:08.164Z,4.30
2023-01-03T08:53:09.883Z,4.34
2023-01-03T08:58:11.629Z,4.42
2023-01-03T09:03:14.055Z,4.40
2023-01-03T09:08:18.582Z,4.44
2023-01-03T09:13:20.286Z,4.52
2023-01-03T09:18:21.897Z,4.57
2023-01-03T09:23:23.730Z,4.65
2023-01-03T09:28:26.143Z,4.66
2023-01-03T09:33:28.288Z,4.71
2023-01-03T09:38:30.116Z,4.57
2023-01-03T09:43:42.265Z,4.63
2023-01-03T09:48:44.520Z,4.71
2023-01-03T09:54:04.824Z,4.76
2023-01-03T09:59:37.178Z,4.79
2023-01-03T10:05:08.789Z,4.84
2023-01-03T10:10:23.885Z,4.91
2023-01-03T10:15:42.694Z,5.01
2023-01-03T10:20:56.917Z,5.07
2023-01-03T10:25:59.210Z,5.15
2023-01-03T10:31:28.820Z,5.19
2023-01-03T10:36:30.496Z,5.32
2023-01-03T10:41:47.930Z,5.30
2023-01-03T10:46:53.796Z,5.37
2023-01-03T10:52:14.605Z,5.45
2023-01-03T10:57:46.483Z,5.47
2023-01-03T11:02:50.809Z,5.53
2023-01-03T11:07:58.809Z,5.57
2023-01-03T11:13:00.587Z,5.61
2023-01-03T11:18:05.599Z,5.70
2023-01-03T11:23:22.437Z,5.76
2023-01-03T11:28:58.508Z,5.87
2023-01-03T11:35:03.084Z,5.91
2023-01-03T11:40:16.774Z,5.98
2023-01-03T11:45:48.833Z,6.02
2023-01-03T11:51:03.326Z,6.10
2023-01-03T11:56:21.697Z,6.13
2023-01-03T12:01:39.773Z,6.20
2023-01-03T12:06:44.485Z,6.29
2023-01-03T12:12:07.733Z,6.32
2023-01-03T12:17:21.276Z,6.31
2023-01-03T12:22:40.864Z,6.37
2023-01-03T12:27:56.673Z,6.42
2023-01-03T12:33:17.597Z,6.50
2023-01-03T12:38:27.758Z,6.54
2023-01-03T12:43:48.589Z,6.59
2023-01-03T12:49:10.592Z,6.61
2023-01-03T12:54:34.083Z,6.66
2023-01-03T13:00:05.192Z,6.69
2023-01-03T13:05:20.307Z,6.72
2023-01-03T13:10:32.478Z,6.79
2023-01-03T13:15:37.370Z,6.84
2023-01-03T13:20:43.555Z,6.94
2023-01-03T13:26:06.139Z,6.99
2023-01-03T13:31:20.954Z,7.05
2023-01-03T13:36:24.315Z,7.07
2023-01-03T13:41:35.263Z,7.04
2023-01-03T13:46:41.710Z,7.00
2023-01-03T13:51:43.462Z,7.02
2023-01-03T13:56:45.281Z,7.00
2023-01-03T14:01:56.791Z,6.98
2023-01-03T14:07:23.812Z,6.99
2023-01-03T14:12:56.701Z,7.02
2023-01-03T14:18:07.252Z,7.05
2023-01-03T14:23:48.969Z,7.06
2023-01-03T14:28:34.819Z,7.01
2023-01-03T14:34:01.018Z,6.96
2023-01-03T14:39:02.809Z,6.95
2023-01-03T14:44:16.171Z,7.01
2023-01-03T14:49:21.441Z,6.91
2023-01-03T14:54:24.444Z,6.93
2023-01-03T14:59:27.258Z,6.91
2023-01-03T15:04:29.012Z,6.93
2023-01-03T15:09:35.592Z,6.91
2023-01-03T15:14:39.286Z,6.92
2023-01-03T15:19:49.966Z,6.81
2023-01-03T15:25:04.177Z,6.86
2023-01-03T15:30:25.487Z,6.86
2023-01-03T15:35:37.616Z,6.85
2023-01-03T15:40:41.500Z,6.85
2023-01-03T15:45:44.308Z,6.90
2023-01-03T15:50:52.077Z,6.90
2023-01-03T15:56:23.122Z,6.90
2023-01-03T16:01:27.246Z,6.92
2023-01-03T16:06:30.024Z,6.89
2023-01-03T16:11:34.647Z,6.94
2023-01-03T16:16:43.461Z,6.91
2023-01-03T16:22:16.043Z,6.93
2023-01-03T16:27:28.335Z,6.92
2023-01-03T16:32:36.046Z,6.91
2023-01-03T16:37:43.566Z,6.87
2023-01-03T16:42:49.730Z,6.92
2023-01-03T16:47:52.556Z,6.89
2023-01-03T16:52:58.690Z,6.89
2023-01-03T16:58:01.858Z,6.88
2023-01-03T17:03:07.454Z,6.86
2023-01-03T17:08:26.470Z,6.90
2023-01-03T17:14:00.513Z,6.89
2023-01-03T17:19:05.171Z,6.87
2023-01-03T17:24:17.997Z,6.88
2023-01-03T17:29:31.337Z,6.84
2023-01-03T17:34:36.492Z,6.84
2023-01-03T17:39:39.086Z,6.91
2023-01-03T17:45:09.859Z,6.88
2023-01-03T17:50:12.224Z,6.87
2023-01-03T17:55:29.112Z,6.93
2023-01-03T18:00:31.990Z,6.90
2023-01-03T18:05:37.898Z,6.91
2023-01-03T18:10:46.479Z,6.97
2023-01-03T18:15:50.080Z,7.02
2023-01-03T18:20:52.747Z,7.00
2023-01-03T18:25:56.780Z,7.09
2023-01-03T18:30:58.610Z,7.02
2023-01-03T18:36:00.945Z,7.10
2023-01-03T18:41:05.900Z,7.09
2023-01-03T18:46:14.600Z,7.14
2023-01-03T18:51:18.897Z,7.14
2023-01-03T18:56:29.515Z,7.17
2023-01-03T19:01:31.745Z,7.14
2023-01-03T19:06:34.205Z,7.13
2023-01-03T19:11:38.050Z,7.19
2023-01-03T19:16:40.899Z,7.23
2023-01-03T19:21:47.145Z,7.14
2023-01-03T19:26:54.113Z,7.22
2023-01-03T19:31:57.682Z,7.21
2023-01-03T19:36:59.352Z,7.21
2023-01-03T19:42:19.467Z,7.28
2023-01-03T19:47:21.829Z,7.27
2023-01-03T19:52:24.765Z,7.30
2023-01-03T19:57:32.267Z,7.31
2023-01-03T20:02:40.347Z,7.30
2023-01-03T20:07:50.939Z,7.30
2023-01-03T20:13:04.272Z,7.32
2023-01-03T20:18:34.103Z,7.33
2023-01-03T20:23:46.213Z,7.31
2023-01-03T20:28:48.267Z,7.44
2023-01-03T20:33:53.357Z,7.40
2023-01-03T20:38:56.149Z,7.36
2023-01-03T20:44:00.611Z,7.37
2023-01-03T20:49:03.824Z,7.51
2023-01-03T20:54:05.661Z,7.49
2023-01-03T20:59:07.500Z,7.51
2023-01-03T21:04:09.563Z,7.59
2023-01-03T21:09:11.845Z,7.49
2023-01-03T21:14:14.772Z,7.48
2023-01-03T21:19:22.035Z,7.52
2023-01-03T21:24:24.355Z,7.57
2023-01-03T21:29:25.980Z,7.56
2023-01-03T21:34:27.757Z,7.59
2023-01-03T21:39:30.931Z,7.56
2023-01-03T21:44:32.563Z,7.56
2023-01-03T21:49:34.170Z,7.54
2023-01-03T21:54:35.894Z,7.57
2023-01-03T21:59:37.971Z,7.64
2023-01-03T22:04:39.638Z,7.61
2023-01-03T22:09:59.948Z,7.79
2023-01-03T22:15:01.628Z,7.72
2023-01-03T22:20:06.344Z,7.76
2023-01-03T22:25:10.747Z,7.80
2023-01-03T22:30:16.684Z,7.77
2023-01-03T22:35:18.788Z,7.67
2023-01-03T22:40:20.535Z,7.63
2023-01-03T22:45:22.171Z,7.49
2023-01-03T22:50:23.897Z,7.37
2023-01-03T22:55:31.786Z,7.32
2023-01-03T23:00:33.814Z,7.36
2023-01-03T23:05:35.971Z,7.40
2023-01-03T23:10:37.565Z,7.44
2023-01-03T23:15:39.238Z,7.37
2023-01-03T23:20:48.675Z,7.44
2023-01-03T23:25:50.289Z,7.49
2023-01-03T23:30:51.995Z,7.52
2023-01-03T23:35:53.778Z,7.41
2023-01-03T23:40:55.368Z,7.45
2023-01-03T23:45:58.014Z,7.50
2023-01-03T23:51:07.605Z,7.46
2023-01-03T23:56:12.637Z,7.44
